Airfield :
LOGIN :

Register | Disclaimer

   EN    FR    IT 

 










Legend :    VFR   Marginal VFR   IFR   Intensive IFR   Very Intensive IFR
Visi :
Ceiling :
>= 8 km
>= 3000ft
5 to 8 km
1000 to 3000 ft
1500m to 5 km
500 to 1000 ft
800 to 1500m
200 to 500 ft
< 800m
< 200 ft
Symbols :   Thunderstorms  Fog  Heavy snow  Heavy precipitations  Wind > 20 kt
SIGMETs :     Misc.  Thunderstorms  Icing  Turbulence  Mountain Waves  Volcanic Ashes






- Airport Elevation : 424 ft
- IATA code : QGY


LHPR - Györ Per

CURRENT METAR :
  • 110415Z AUTO 12010KT CAVOK 05/03 Q1017 NOSIG

EXPIRED METARs :
  • 110345Z AUTO 13010KT CAVOK 06/03 Q1017
  • 110315Z AUTO 12010KT CAVOK 05/03 Q1017
  • 110245Z AUTO 13010KT CAVOK 05/02 Q1017
  • 110215Z AUTO 12009KT 100V170 CAVOK 05/02 Q1017
  • 110145Z AUTO 13009KT CAVOK 04/02 Q1017

TAF TAF LHPR
Valid from the 11 at 03:00 until the 11 at 12:00 UTC


110215Z 1103/1112 13012KT CAVOK
BECMG 1104/1107 19017KT
TEMPO 1108/1112 19022G34KT
TEMPO 1111/1112 BKN045 OVC090



MET'MAP, your aeronautical weather chart ! - Copyright ORBIFLY December 2007 - Disclaimer

ORBIFLY MET'MAP TEAM :

Programming & Development : Alexandra Zaïnal
Concept & original design : Baudouin d'Aumeries
Assistance for programming : Marc-Olivier Méhu
Technical & hardware support : Manuel Goepfert

Contact : metmap@orbifly.com




SOURCES & CREDITS :

   NOAA